sensor_id;sensor_type;location;lat;lon;timestamp;temperature;humidity
64620;DHT22;51029;51.058;13.826;2023-03-01T00:01:16;-2.20;99.90
64620;DHT22;51029;51.058;13.826;2023-03-01T00:03:42;-2.20;99.90
64620;DHT22;51029;51.058;13.826;2023-03-01T00:06:08;-2.30;99.90
64620;DHT22;51029;51.058;13.826;2023-03-01T00:08:34;-2.30;99.90
64620;DHT22;51029;51.058;13.826;2023-03-01T00:13:30;-2.30;99.90
64620;DHT22;51029;51.058;13.826;2023-03-01T00:15:56;-2.40;99.90
64620;DHT22;51029;51.058;13.826;2023-03-01T00:18:21;-2.40;99.90
64620;DHT22;51029;51.058;13.826;2023-03-01T00:20:52;-2.40;99.90
64620;DHT22;51029;51.058;13.826;2023-03-01T00:23:18;-2.50;99.90
64620;DHT22;51029;51.058;13.826;2023-03-01T00:25:43;-2.50;99.90
64620;DHT22;51029;51.058;13.826;2023-03-01T00:28:09;-2.60;99.90
64620;DHT22;51029;51.058;13.826;2023-03-01T00:30:34;-2.60;99.90
64620;DHT22;51029;51.058;13.826;2023-03-01T00:33:00;-2.70;99.90
64620;DHT22;51029;51.058;13.826;2023-03-01T00:35:25;-2.60;99.90
64620;DHT22;51029;51.058;13.826;2023-03-01T00:37:51;-2.70;99.90
64620;DHT22;51029;51.058;13.826;2023-03-01T00:40:24;-2.80;99.90
64620;DHT22;51029;51.058;13.826;2023-03-01T00:42:50;-2.80;99.90
64620;DHT22;51029;51.058;13.826;2023-03-01T00:45:16;-2.70;99.90
64620;DHT22;51029;51.058;13.826;2023-03-01T00:47:42;-2.70;99.90
64620;DHT22;51029;51.058;13.826;2023-03-01T00:50:08;-2.70;99.90
64620;DHT22;51029;51.058;13.826;2023-03-01T00:52:34;-2.80;99.90
64620;DHT22;51029;51.058;13.826;2023-03-01T00:54:59;-2.80;99.90
64620;DHT22;51029;51.058;13.826;2023-03-01T00:57:25;-2.80;99.90
64620;DHT22;51029;51.058;13.826;2023-03-01T00:59:50;-2.80;99.90
64620;DHT22;51029;51.058;13.826;2023-03-01T01:02:18;-2.80;99.90
64620;DHT22;51029;51.058;13.826;2023-03-01T01:04:44;-2.80;99.90
64620;DHT22;51029;51.058;13.826;2023-03-01T01:07:10;-2.80;99.90
64620;DHT22;51029;51.058;13.826;2023-03-01T01:09:36;-2.90;99.90
64620;DHT22;51029;51.058;13.826;2023-03-01T01:12:02;-2.90;99.90
64620;DHT22;51029;51.058;13.826;2023-03-01T01:14:27;-2.90;99.90
64620;DHT22;51029;51.058;13.826;2023-03-01T01:16:53;-3.00;99.90
64620;DHT22;51029;51.058;13.826;2023-03-01T01:19:18;-3.10;99.90
64620;DHT22;51029;51.058;13.826;2023-03-01T01:21:44;-3.10;99.90
64620;DHT22;51029;51.058;13.826;2023-03-01T01:24:10;-3.10;99.90
64620;DHT22;51029;51.058;13.826;2023-03-01T01:26:36;-3.20;99.90
64620;DHT22;51029;51.058;13.826;2023-03-01T01:29:04;-3.30;99.90
64620;DHT22;51029;51.058;13.826;2023-03-01T01:31:30;-3.20;99.90
64620;DHT22;51029;51.058;13.826;2023-03-01T01:33:56;-3.20;99.90
64620;DHT22;51029;51.058;13.826;2023-03-01T01:36:22;-3.20;99.90
64620;DHT22;51029;51.058;13.826;2023-03-01T01:38:48;-3.20;99.90
64620;DHT22;51029;51.058;13.826;2023-03-01T01:41:14;-3.20;99.90
64620;DHT22;51029;51.058;13.826;2023-03-01T01:43:45;-3.20;99.90
64620;DHT22;51029;51.058;13.826;2023-03-01T01:46:31;-3.20;99.90
64620;DHT22;51029;51.058;13.826;2023-03-01T01:49:05;-3.20;99.90
64620;DHT22;51029;51.058;13.826;2023-03-01T01:51:45;-3.20;99.90
64620;DHT22;51029;51.058;13.826;2023-03-01T01:54:20;-3.20;99.90
64620;DHT22;51029;51.058;13.826;2023-03-01T01:56:52;-3.20;99.90
64620;DHT22;51029;51.058;13.826;2023-03-01T01:59:19;-3.20;99.90
64620;DHT22;51029;51.058;13.826;2023-03-01T02:01:47;-3.20;99.90
64620;DHT22;51029;51.058;13.826;2023-03-01T02:04:13;-3.30;99.90
64620;DHT22;51029;51.058;13.826;2023-03-01T02:06:48;-3.30;99.90
64620;DHT22;51029;51.058;13.826;2023-03-01T02:09:19;-3.30;99.90
64620;DHT22;51029;51.058;13.826;2023-03-01T02:11:46;-3.40;99.90
64620;DHT22;51029;51.058;13.826;2023-03-01T02:14:12;-3.40;99.90
64620;DHT22;51029;51.058;13.826;2023-03-01T02:16:38;-3.40;99.90
64620;DHT22;51029;51.058;13.826;2023-03-01T02:19:04;-3.40;99.90
64620;DHT22;51029;51.058;13.826;2023-03-01T02:21:42;-3.40;99.90
64620;DHT22;51029;51.058;13.826;2023-03-01T02:24:31;-3.40;99.90
64620;DHT22;51029;51.058;13.826;2023-03-01T02:26:57;-3.50;99.90
64620;DHT22;51029;51.058;13.826;2023-03-01T02:29:24;-3.50;99.90
64620;DHT22;51029;51.058;13.826;2023-03-01T02:31:51;-3.60;99.90
64620;DHT22;51029;51.058;13.826;2023-03-01T02:34:21;-3.60;99.90
64620;DHT22;51029;51.058;13.826;2023-03-01T02:36:49;-3.60;99.90
64620;DHT22;51029;51.058;13.826;2023-03-01T02:39:23;-3.70;99.90
64620;DHT22;51029;51.058;13.826;2023-03-01T02:41:54;-3.70;99.90
64620;DHT22;51029;51.058;13.826;2023-03-01T02:44:21;-3.70;99.90
64620;DHT22;51029;51.058;13.826;2023-03-01T02:46:49;-3.70;99.90
64620;DHT22;51029;51.058;13.826;2023-03-01T02:55:08;-3.90;99.90
64620;DHT22;51029;51.058;13.826;2023-03-01T02:57:36;-4.00;99.90
64620;DHT22;51029;51.058;13.826;2023-03-01T03:00:07;-4.00;99.90
64620;DHT22;51029;51.058;13.826;2023-03-01T03:02:34;-4.00;99.90
64620;DHT22;51029;51.058;13.826;2023-03-01T03:05:09;-4.00;99.90
64620;DHT22;51029;51.058;13.826;2023-03-01T03:07:40;-4.00;99.90
64620;DHT22;51029;51.058;13.826;2023-03-01T03:10:09;-4.00;99.90
64620;DHT22;51029;51.058;13.826;2023-03-01T03:12:36;-4.00;99.90
64620;DHT22;51029;51.058;13.826;2023-03-01T03:15:02;-4.00;99.90
64620;DHT22;51029;51.058;13.826;2023-03-01T03:17:37;-4.00;99.90
64620;DHT22;51029;51.058;13.826;2023-03-01T03:20:04;-4.00;99.90
64620;DHT22;51029;51.058;13.826;2023-03-01T03:22:31;-4.00;99.90
64620;DHT22;51029;51.058;13.826;2023-03-01T03:24:59;-4.00;99.90
64620;DHT22;51029;51.058;13.826;2023-03-01T03:27:25;-4.00;99.90
64620;DHT22;51029;51.058;13.826;2023-03-01T03:29:50;-4.00;99.90
64620;DHT22;51029;51.058;13.826;2023-03-01T03:32:16;-4.10;99.90
64620;DHT22;51029;51.058;13.826;2023-03-01T03:34:41;-4.10;99.90
64620;DHT22;51029;51.058;13.826;2023-03-01T03:37:07;-4.20;99.90
64620;DHT22;51029;51.058;13.826;2023-03-01T03:39:52;-4.20;99.90
64620;DHT22;51029;51.058;13.826;2023-03-01T03:42:20;-4.10;99.90
64620;DHT22;51029;51.058;13.826;2023-03-01T03:44:47;-4.20;99.90
64620;DHT22;51029;51.058;13.826;2023-03-01T03:47:12;-4.20;99.90
64620;DHT22;51029;51.058;13.826;2023-03-01T03:49:38;-4.30;99.90
64620;DHT22;51029;51.058;13.826;2023-03-01T03:52:03;-4.30;99.90
64620;DHT22;51029;51.058;13.826;2023-03-01T03:54:29;-4.30;99.90
64620;DHT22;51029;51.058;13.826;2023-03-01T03:56:54;-4.30;99.90
64620;DHT22;51029;51.058;13.826;2023-03-01T03:59:20;-4.30;99.90
64620;DHT22;51029;51.058;13.826;2023-03-01T04:01:45;-4.40;99.90
64620;DHT22;51029;51.058;13.826;2023-03-01T04:04:10;-4.40;99.90
64620;DHT22;51029;51.058;13.826;2023-03-01T04:06:36;-4.40;99.90
64620;DHT22;51029;51.058;13.826;2023-03-01T04:09:02;-4.40;99.90
64620;DHT22;51029;51.058;13.826;2023-03-01T04:11:28;-4.30;99.90
64620;DHT22;51029;51.058;13.826;2023-03-01T04:13:56;-4.40;99.90
64620;DHT22;51029;51.058;13.826;2023-03-01T04:16:22;-4.40;99.90
64620;DHT22;51029;51.058;13.826;2023-03-01T04:18:47;-4.40;99.90
64620;DHT22;51029;51.058;13.826;2023-03-01T04:21:13;-4.50;99.90
64620;DHT22;51029;51.058;13.826;2023-03-01T04:23:39;-4.50;99.90
64620;DHT22;51029;51.058;13.826;2023-03-01T04:26:06;-4.50;99.90
64620;DHT22;51029;51.058;13.826;2023-03-01T04:28:37;-4.40;99.90
64620;DHT22;51029;51.058;13.826;2023-03-01T04:31:13;-4.50;99.90
64620;DHT22;51029;51.058;13.826;2023-03-01T04:33:53;-4.50;99.90
64620;DHT22;51029;51.058;13.826;2023-03-01T04:36:21;-4.60;99.90
64620;DHT22;51029;51.058;13.826;2023-03-01T04:38:47;-4.60;99.90
64620;DHT22;51029;51.058;13.826;2023-03-01T04:41:15;-4.60;99.90
64620;DHT22;51029;51.058;13.826;2023-03-01T04:43:41;-4.60;99.90
64620;DHT22;51029;51.058;13.826;2023-03-01T04:46:08;-4.70;99.90
64620;DHT22;51029;51.058;13.826;2023-03-01T04:48:36;-4.70;99.90
64620;DHT22;51029;51.058;13.826;2023-03-01T04:51:02;-4.70;99.90
64620;DHT22;51029;51.058;13.826;2023-03-01T04:53:29;-4.80;99.90
64620;DHT22;51029;51.058;13.826;2023-03-01T04:55:55;-4.80;99.90
64620;DHT22;51029;51.058;13.826;2023-03-01T04:58:26;-4.80;99.90
64620;DHT22;51029;51.058;13.826;2023-03-01T05:00:53;-4.90;99.90
64620;DHT22;51029;51.058;13.826;2023-03-01T05:03:19;-5.00;99.90
64620;DHT22;51029;51.058;13.826;2023-03-01T05:05:48;-5.00;99.90
64620;DHT22;51029;51.058;13.826;2023-03-01T05:08:14;-5.00;99.90
64620;DHT22;51029;51.058;13.826;2023-03-01T05:10:49;-5.10;99.90
64620;DHT22;51029;51.058;13.826;2023-03-01T05:13:15;-5.10;99.90
64620;DHT22;51029;51.058;13.826;2023-03-01T05:15:47;-5.00;99.90
64620;DHT22;51029;51.058;13.826;2023-03-01T05:18:14;-4.90;99.90
64620;DHT22;51029;51.058;13.826;2023-03-01T05:20:39;-4.90;99.90
64620;DHT22;51029;51.058;13.826;2023-03-01T05:23:05;-4.90;99.90
64620;DHT22;51029;51.058;13.826;2023-03-01T05:25:32;-4.90;99.90
64620;DHT22;51029;51.058;13.826;2023-03-01T05:27:59;-5.00;99.90
64620;DHT22;51029;51.058;13.826;2023-03-01T05:30:24;-5.00;99.90
64620;DHT22;51029;51.058;13.826;2023-03-01T05:32:50;-4.90;99.90
64620;DHT22;51029;51.058;13.826;2023-03-01T05:35:21;-5.00;99.90
64620;DHT22;51029;51.058;13.826;2023-03-01T05:37:48;-5.00;99.90
64620;DHT22;51029;51.058;13.826;2023-03-01T05:40:17;-5.00;99.90
64620;DHT22;51029;51.058;13.826;2023-03-01T05:42:44;-5.10;99.90
64620;DHT22;51029;51.058;13.826;2023-03-01T05:45:11;-5.00;99.90
64620;DHT22;51029;51.058;13.826;2023-03-01T05:47:38;-5.00;99.90
64620;DHT22;51029;51.058;13.826;2023-03-01T05:50:04;-5.00;99.90
64620;DHT22;51029;51.058;13.826;2023-03-01T05:52:29;-5.10;99.90
64620;DHT22;51029;51.058;13.826;2023-03-01T05:54:55;-5.10;99.90
64620;DHT22;51029;51.058;13.826;2023-03-01T05:57:20;-5.10;99.90
64620;DHT22;51029;51.058;13.826;2023-03-01T05:59:46;-5.10;99.90
64620;DHT22;51029;51.058;13.826;2023-03-01T06:02:11;-5.10;99.90
64620;DHT22;51029;51.058;13.826;2023-03-01T06:04:37;-5.10;99.90
64620;DHT22;51029;51.058;13.826;2023-03-01T06:07:02;-5.10;99.90
64620;DHT22;51029;51.058;13.826;2023-03-01T06:09:28;-5.00;99.90
64620;DHT22;51029;51.058;13.826;2023-03-01T06:11:53;-5.00;99.90
64620;DHT22;51029;51.058;13.826;2023-03-01T06:14:19;-4.90;99.90
64620;DHT22;51029;51.058;13.826;2023-03-01T06:16:46;-4.90;99.90
64620;DHT22;51029;51.058;13.826;2023-03-01T06:19:11;-4.90;99.90
64620;DHT22;51029;51.058;13.826;2023-03-01T06:21:37;-4.90;99.90
64620;DHT22;51029;51.058;13.826;2023-03-01T06:24:02;-4.80;99.90
64620;DHT22;51029;51.058;13.826;2023-03-01T06:26:28;-4.90;99.90
64620;DHT22;51029;51.058;13.826;2023-03-01T06:28:53;-4.80;99.90
64620;DHT22;51029;51.058;13.826;2023-03-01T06:31:19;-4.80;99.90
64620;DHT22;51029;51.058;13.826;2023-03-01T06:33:44;-4.80;99.90
64620;DHT22;51029;51.058;13.826;2023-03-01T06:36:10;-4.70;99.90
64620;DHT22;51029;51.058;13.826;2023-03-01T06:38:35;-4.70;99.90
64620;DHT22;51029;51.058;13.826;2023-03-01T06:41:01;-4.80;99.90
64620;DHT22;51029;51.058;13.826;2023-03-01T06:43:27;-4.80;99.90
64620;DHT22;51029;51.058;13.826;2023-03-01T06:45:52;-4.70;99.90
64620;DHT22;51029;51.058;13.826;2023-03-01T06:48:18;-4.70;99.90
64620;DHT22;51029;51.058;13.826;2023-03-01T06:50:43;-4.70;99.90
64620;DHT22;51029;51.058;13.826;2023-03-01T06:53:09;-4.70;99.90
64620;DHT22;51029;51.058;13.826;2023-03-01T06:55:34;-4.70;99.90
64620;DHT22;51029;51.058;13.826;2023-03-01T06:58:01;-4.60;99.90
64620;DHT22;51029;51.058;13.826;2023-03-01T07:00:27;-4.50;99.90
64620;DHT22;51029;51.058;13.826;2023-03-01T07:02:53;-4.50;99.90
64620;DHT22;51029;51.058;13.826;2023-03-01T07:05:19;-4.40;99.90
64620;DHT22;51029;51.058;13.826;2023-03-01T07:07:44;-4.20;99.90
64620;DHT22;51029;51.058;13.826;2023-03-01T07:10:10;-4.10;99.90
64620;DHT22;51029;51.058;13.826;2023-03-01T07:12:36;-4.10;99.90
64620;DHT22;51029;51.058;13.826;2023-03-01T07:15:02;-4.00;99.90
64620;DHT22;51029;51.058;13.826;2023-03-01T07:17:27;-3.90;99.90
64620;DHT22;51029;51.058;13.826;2023-03-01T07:19:53;-3.90;99.90
64620;DHT22;51029;51.058;13.826;2023-03-01T07:22:18;-3.90;99.90
64620;DHT22;51029;51.058;13.826;2023-03-01T07:24:44;-3.80;99.90
64620;DHT22;51029;51.058;13.826;2023-03-01T07:27:10;-3.60;99.90
64620;DHT22;51029;51.058;13.826;2023-03-01T07:29:36;-3.60;99.90
64620;DHT22;51029;51.058;13.826;2023-03-01T07:32:05;-3.50;99.90
64620;DHT22;51029;51.058;13.826;2023-03-01T07:34:32;-3.50;99.90
64620;DHT22;51029;51.058;13.826;2023-03-01T07:36:57;-3.40;99.90
64620;DHT22;51029;51.058;13.826;2023-03-01T07:39:23;-3.40;99.90
64620;DHT22;51029;51.058;13.826;2023-03-01T07:41:49;-3.40;99.90
64620;DHT22;51029;51.058;13.826;2023-03-01T07:44:14;-3.30;99.90
64620;DHT22;51029;51.058;13.826;2023-03-01T07:46:41;-3.30;99.90
64620;DHT22;51029;51.058;13.826;2023-03-01T07:49:07;-3.20;99.90
64620;DHT22;51029;51.058;13.826;2023-03-01T07:51:32;-3.10;99.90
64620;DHT22;51029;51.058;13.826;2023-03-01T07:53:58;-3.00;99.90
64620;DHT22;51029;51.058;13.826;2023-03-01T07:56:23;-2.80;99.90
64620;DHT22;51029;51.058;13.826;2023-03-01T07:58:49;-2.60;99.90
64620;DHT22;51029;51.058;13.826;2023-03-01T08:01:17;-2.40;99.90
64620;DHT22;51029;51.058;13.826;2023-03-01T08:03:43;-2.30;99.90
64620;DHT22;51029;51.058;13.826;2023-03-01T08:06:10;-2.20;99.90
64620;DHT22;51029;51.058;13.826;2023-03-01T08:08:36;-2.10;99.90
64620;DHT22;51029;51.058;13.826;2023-03-01T08:11:03;-1.90;99.90
64620;DHT22;51029;51.058;13.826;2023-03-01T08:13:30;-1.70;99.90
64620;DHT22;51029;51.058;13.826;2023-03-01T08:16:02;-1.60;99.90
64620;DHT22;51029;51.058;13.826;2023-03-01T08:18:28;-1.60;99.90
64620;DHT22;51029;51.058;13.826;2023-03-01T08:20:53;-1.40;99.90
64620;DHT22;51029;51.058;13.826;2023-03-01T08:23:18;-1.20;99.90
64620;DHT22;51029;51.058;13.826;2023-03-01T08:25:44;-1.00;99.90
64620;DHT22;51029;51.058;13.826;2023-03-01T08:28:09;-0.80;99.90
64620;DHT22;51029;51.058;13.826;2023-03-01T08:30:35;-0.50;99.90
64620;DHT22;51029;51.058;13.826;2023-03-01T08:33:00;-0.50;99.90
64620;DHT22;51029;51.058;13.826;2023-03-01T08:35:26;-0.40;99.90
64620;DHT22;51029;51.058;13.826;2023-03-01T08:37:51;-0.40;99.90
64620;DHT22;51029;51.058;13.826;2023-03-01T08:40:17;-0.30;99.90
64620;DHT22;51029;51.058;13.826;2023-03-01T08:42:43;0.00;99.90
64620;DHT22;51029;51.058;13.826;2023-03-01T08:45:09;0.20;99.90
64620;DHT22;51029;51.058;13.826;2023-03-01T08:47:35;0.40;99.90
64620;DHT22;51029;51.058;13.826;2023-03-01T08:50:01;0.70;99.90
64620;DHT22;51029;51.058;13.826;2023-03-01T08:52:27;0.80;99.90
64620;DHT22;51029;51.058;13.826;2023-03-01T08:54:53;1.10;99.90
64620;DHT22;51029;51.058;13.826;2023-03-01T08:57:18;1.20;99.90
64620;DHT22;51029;51.058;13.826;2023-03-01T08:59:44;1.30;99.90
64620;DHT22;51029;51.058;13.826;2023-03-01T09:02:15;1.30;99.90
64620;DHT22;51029;51.058;13.826;2023-03-01T09:04:41;1.30;99.90
64620;DHT22;51029;51.058;13.826;2023-03-01T09:07:07;1.50;99.90
64620;DHT22;51029;51.058;13.826;2023-03-01T09:09:33;1.90;99.90
64620;DHT22;51029;51.058;13.826;2023-03-01T09:11:58;2.00;99.90
64620;DHT22;51029;51.058;13.826;2023-03-01T09:14:24;2.20;99.90
64620;DHT22;51029;51.058;13.826;2023-03-01T09:16:49;2.60;99.90
64620;DHT22;51029;51.058;13.826;2023-03-01T09:19:15;3.00;99.90
64620;DHT22;51029;51.058;13.826;2023-03-01T09:21:42;3.30;99.90
64620;DHT22;51029;51.058;13.826;2023-03-01T09:24:18;3.80;99.90
64620;DHT22;51029;51.058;13.826;2023-03-01T09:26:44;4.10;99.90
64620;DHT22;51029;51.058;13.826;2023-03-01T09:29:12;4.40;99.90
64620;DHT22;51029;51.058;13.826;2023-03-01T09:31:38;5.10;99.90
64620;DHT22;51029;51.058;13.826;2023-03-01T09:34:04;6.10;99.90
64620;DHT22;51029;51.058;13.826;2023-03-01T09:36:30;7.40;99.90
64620;DHT22;51029;51.058;13.826;2023-03-01T09:38:56;8.50;99.90
64620;DHT22;51029;51.058;13.826;2023-03-01T09:44:13;10.00;95.10
64620;DHT22;51029;51.058;13.826;2023-03-01T09:46:43;10.30;92.00
64620;DHT22;51029;51.058;13.826;2023-03-01T09:49:21;11.10;90.50
64620;DHT22;51029;51.058;13.826;2023-03-01T09:52:19;11.40;87.50
64620;DHT22;51029;51.058;13.826;2023-03-01T09:54:55;11.90;80.20
64620;DHT22;51029;51.058;13.826;2023-03-01T09:57:54;11.50;77.60
64620;DHT22;51029;51.058;13.826;2023-03-01T10:00:41;12.00;81.10
64620;DHT22;51029;51.058;13.826;2023-03-01T10:03:17;12.60;75.50
64620;DHT22;51029;51.058;13.826;2023-03-01T10:06:01;13.30;71.30
64620;DHT22;51029;51.058;13.826;2023-03-01T10:13:58;15.20;58.90
64620;DHT22;51029;51.058;13.826;2023-03-01T10:22:13;15.50;51.70
64620;DHT22;51029;51.058;13.826;2023-03-01T10:24:38;15.40;50.40
64620;DHT22;51029;51.058;13.826;2023-03-01T10:27:09;16.70;51.60
64620;DHT22;51029;51.058;13.826;2023-03-01T10:29:42;17.80;48.00
64620;DHT22;51029;51.058;13.826;2023-03-01T10:32:10;18.00;45.80
64620;DHT22;51029;51.058;13.826;2023-03-01T10:34:36;18.60;43.10
64620;DHT22;51029;51.058;13.826;2023-03-01T10:37:14;18.70;41.40
64620;DHT22;51029;51.058;13.826;2023-03-01T10:42:32;19.80;39.20
64620;DHT22;51029;51.058;13.826;2023-03-01T10:45:14;20.80;37.30
64620;DHT22;51029;51.058;13.826;2023-03-01T10:47:40;21.00;35.50
64620;DHT22;51029;51.058;13.826;2023-03-01T10:50:23;21.60;34.80
64620;DHT22;51029;51.058;13.826;2023-03-01T10:52:58;21.80;34.10
64620;DHT22;51029;51.058;13.826;2023-03-01T10:58:18;23.00;32.50
64620;DHT22;51029;51.058;13.826;2023-03-01T11:00:50;24.30;30.50
64620;DHT22;51029;51.058;13.826;2023-03-01T11:03:21;24.30;29.40
64620;DHT22;51029;51.058;13.826;2023-03-01T11:08:34;25.80;29.00
64620;DHT22;51029;51.058;13.826;2023-03-01T11:11:07;26.60;27.00
64620;DHT22;51029;51.058;13.826;2023-03-01T11:13:49;25.70;26.60
64620;DHT22;51029;51.058;13.826;2023-03-01T11:16:23;25.30;27.30
64620;DHT22;51029;51.058;13.826;2023-03-01T11:19:00;25.40;27.60
64620;DHT22;51029;51.058;13.826;2023-03-01T11:21:28;26.50;26.80
64620;DHT22;51029;51.058;13.826;2023-03-01T11:23:55;27.20;25.70
64620;DHT22;51029;51.058;13.826;2023-03-01T11:26:21;28.10;25.10
64620;DHT22;51029;51.058;13.826;2023-03-01T11:28:52;29.40;24.30
64620;DHT22;51029;51.058;13.826;2023-03-01T11:31:21;30.20;23.50
64620;DHT22;51029;51.058;13.826;2023-03-01T11:34:12;30.00;22.80
64620;DHT22;51029;51.058;13.826;2023-03-01T11:36:52;29.40;22.30
64620;DHT22;51029;51.058;13.826;2023-03-01T11:39:46;29.80;22.60
64620;DHT22;51029;51.058;13.826;2023-03-01T11:42:25;28.80;22.00
64620;DHT22;51029;51.058;13.826;2023-03-01T11:44:55;28.30;22.10
64620;DHT22;51029;51.058;13.826;2023-03-01T11:50:19;29.50;22.50
64620;DHT22;51029;51.058;13.826;2023-03-01T11:53:16;29.50;21.40
64620;DHT22;51029;51.058;13.826;2023-03-01T11:56:38;30.60;21.10
64620;DHT22;51029;51.058;13.826;2023-03-01T12:01:58;31.20;20.10
64620;DHT22;51029;51.058;13.826;2023-03-01T12:04:49;31.30;20.00
64620;DHT22;51029;51.058;13.826;2023-03-01T12:07:25;31.30;20.30
64620;DHT22;51029;51.058;13.826;2023-03-01T12:10:23;31.20;20.30
64620;DHT22;51029;51.058;13.826;2023-03-01T12:15:46;31.40;19.90
64620;DHT22;51029;51.058;13.826;2023-03-01T12:24:25;31.40;19.90
64620;DHT22;51029;51.058;13.826;2023-03-01T12:49:38;32.90;19.70
64620;DHT22;51029;51.058;13.826;2023-03-01T12:54:45;32.20;19.20
64620;DHT22;51029;51.058;13.826;2023-03-01T12:57:20;32.70;19.30
64620;DHT22;51029;51.058;13.826;2023-03-01T13:06:06;33.00;18.70
64620;DHT22;51029;51.058;13.826;2023-03-01T13:08:49;32.30;18.70
64620;DHT22;51029;51.058;13.826;2023-03-01T13:11:20;32.10;18.80
64620;DHT22;51029;51.058;13.826;2023-03-01T13:13:47;32.20;19.00
64620;DHT22;51029;51.058;13.826;2023-03-01T13:19:12;32.80;18.90
64620;DHT22;51029;51.058;13.826;2023-03-01T13:21:39;33.00;18.40
64620;DHT22;51029;51.058;13.826;2023-03-01T13:24:24;33.80;18.70
64620;DHT22;51029;51.058;13.826;2023-03-01T13:34:47;32.30;18.90
64620;DHT22;51029;51.058;13.826;2023-03-01T13:37:24;32.30;19.20
64620;DHT22;51029;51.058;13.826;2023-03-01T13:39:51;32.40;19.30
64620;DHT22;51029;51.058;13.826;2023-03-01T13:42:38;31.60;19.00
64620;DHT22;51029;51.058;13.826;2023-03-01T13:45:31;32.00;19.20
64620;DHT22;51029;51.058;13.826;2023-03-01T13:48:24;30.80;19.30
64620;DHT22;51029;51.058;13.826;2023-03-01T13:51:10;31.20;19.70
64620;DHT22;51029;51.058;13.826;2023-03-01T13:53:43;31.30;19.30
64620;DHT22;51029;51.058;13.826;2023-03-01T13:56:27;31.60;19.10
64620;DHT22;51029;51.058;13.826;2023-03-01T13:59:01;31.80;19.10
64620;DHT22;51029;51.058;13.826;2023-03-01T14:01:35;31.00;19.20
64620;DHT22;51029;51.058;13.826;2023-03-01T14:04:02;30.80;19.40
64620;DHT22;51029;51.058;13.826;2023-03-01T14:06:30;30.80;19.40
64620;DHT22;51029;51.058;13.826;2023-03-01T14:09:10;30.20;19.00
64620;DHT22;51029;51.058;13.826;2023-03-01T14:17:29;30.00;19.40
64620;DHT22;51029;51.058;13.826;2023-03-01T14:20:02;29.60;19.40
64620;DHT22;51029;51.058;13.826;2023-03-01T14:22:34;29.50;19.30
64620;DHT22;51029;51.058;13.826;2023-03-01T14:25:05;29.10;19.40
64620;DHT22;51029;51.058;13.826;2023-03-01T14:27:36;29.10;19.70
64620;DHT22;51029;51.058;13.826;2023-03-01T14:30:12;28.30;20.00
64620;DHT22;51029;51.058;13.826;2023-03-01T14:32:40;27.90;20.30
64620;DHT22;51029;51.058;13.826;2023-03-01T14:35:26;27.50;20.60
64620;DHT22;51029;51.058;13.826;2023-03-01T14:37:52;27.30;20.70
64620;DHT22;51029;51.058;13.826;2023-03-01T14:42:53;26.80;21.00
64620;DHT22;51029;51.058;13.826;2023-03-01T14:45:19;26.50;21.30
64620;DHT22;51029;51.058;13.826;2023-03-01T14:47:45;26.40;21.70
64620;DHT22;51029;51.058;13.826;2023-03-01T14:50:28;26.30;21.60
64620;DHT22;51029;51.058;13.826;2023-03-01T14:52:59;25.90;21.70
64620;DHT22;51029;51.058;13.826;2023-03-01T14:55:30;25.70;21.90
64620;DHT22;51029;51.058;13.826;2023-03-01T14:57:57;25.60;22.20
64620;DHT22;51029;51.058;13.826;2023-03-01T15:00:30;25.30;22.20
64620;DHT22;51029;51.058;13.826;2023-03-01T15:03:01;24.50;22.10
64620;DHT22;51029;51.058;13.826;2023-03-01T15:05:30;24.10;22.70
64620;DHT22;51029;51.058;13.826;2023-03-01T15:07:59;23.30;22.90
64620;DHT22;51029;51.058;13.826;2023-03-01T15:10:31;22.50;23.30
64620;DHT22;51029;51.058;13.826;2023-03-01T15:13:19;21.00;23.60
64620;DHT22;51029;51.058;13.826;2023-03-01T15:15:47;18.90;24.60
64620;DHT22;51029;51.058;13.826;2023-03-01T15:18:15;17.20;26.80
64620;DHT22;51029;51.058;13.826;2023-03-01T15:20:42;16.10;28.30
64620;DHT22;51029;51.058;13.826;2023-03-01T15:23:19;15.30;29.00
64620;DHT22;51029;51.058;13.826;2023-03-01T15:25:45;14.70;30.30
64620;DHT22;51029;51.058;13.826;2023-03-01T15:28:19;14.20;30.90
64620;DHT22;51029;51.058;13.826;2023-03-01T15:30:46;13.70;32.30
64620;DHT22;51029;51.058;13.826;2023-03-01T15:33:35;13.80;34.60
64620;DHT22;51029;51.058;13.826;2023-03-01T15:38:57;14.40;35.80
64620;DHT22;51029;51.058;13.826;2023-03-01T15:41:27;14.10;38.00
64620;DHT22;51029;51.058;13.826;2023-03-01T15:43:56;14.20;38.20
64620;DHT22;51029;51.058;13.826;2023-03-01T15:46:32;14.80;37.10
64620;DHT22;51029;51.058;13.826;2023-03-01T15:49:50;15.60;34.90
64620;DHT22;51029;51.058;13.826;2023-03-01T15:51:52;16.00;34.70
64620;DHT22;51029;51.058;13.826;2023-03-01T15:54:22;16.00;35.10
64620;DHT22;51029;51.058;13.826;2023-03-01T15:56:49;15.90;34.70
64620;DHT22;51029;51.058;13.826;2023-03-01T15:59:16;15.70;36.60
64620;DHT22;51029;51.058;13.826;2023-03-01T16:01:42;15.40;37.00
64620;DHT22;51029;51.058;13.826;2023-03-01T16:04:13;15.00;37.90
64620;DHT22;51029;51.058;13.826;2023-03-01T16:06:53;14.70;39.70
64620;DHT22;51029;51.058;13.826;2023-03-01T16:09:22;14.00;40.60
64620;DHT22;51029;51.058;13.826;2023-03-01T16:11:49;13.60;42.50
64620;DHT22;51029;51.058;13.826;2023-03-01T16:14:15;13.20;43.90
64620;DHT22;51029;51.058;13.826;2023-03-01T16:16:41;12.80;46.30
64620;DHT22;51029;51.058;13.826;2023-03-01T16:19:07;12.20;48.30
64620;DHT22;51029;51.058;13.826;2023-03-01T16:21:33;11.90;50.40
64620;DHT22;51029;51.058;13.826;2023-03-01T16:23:58;11.30;51.20
64620;DHT22;51029;51.058;13.826;2023-03-01T16:26:24;10.30;54.30
64620;DHT22;51029;51.058;13.826;2023-03-01T16:28:49;9.50;58.40
64620;DHT22;51029;51.058;13.826;2023-03-01T16:31:19;8.80;63.80
64620;DHT22;51029;51.058;13.826;2023-03-01T16:33:45;8.20;69.20
64620;DHT22;51029;51.058;13.826;2023-03-01T16:36:19;7.70;83.30
64620;DHT22;51029;51.058;13.826;2023-03-01T16:38:45;7.20;91.00
64620;DHT22;51029;51.058;13.826;2023-03-01T16:41:15;6.90;93.30
64620;DHT22;51029;51.058;13.826;2023-03-01T16:43:41;6.60;95.00
64620;DHT22;51029;51.058;13.826;2023-03-01T16:46:33;6.30;96.70
64620;DHT22;51029;51.058;13.826;2023-03-01T16:48:58;6.10;99.40
64620;DHT22;51029;51.058;13.826;2023-03-01T16:51:24;5.90;99.90
64620;DHT22;51029;51.058;13.826;2023-03-01T16:53:50;5.60;99.90
64620;DHT22;51029;51.058;13.826;2023-03-01T16:56:16;5.40;99.90
64620;DHT22;51029;51.058;13.826;2023-03-01T16:58:44;5.30;99.90
64620;DHT22;51029;51.058;13.826;2023-03-01T17:01:15;5.10;99.90
64620;DHT22;51029;51.058;13.826;2023-03-01T17:03:41;4.90;99.90
64620;DHT22;51029;51.058;13.826;2023-03-01T17:06:10;4.70;99.90
64620;DHT22;51029;51.058;13.826;2023-03-01T17:08:37;4.70;99.90
64620;DHT22;51029;51.058;13.826;2023-03-01T17:11:13;4.70;99.90